Time;durP1;ratioP1;P1;durP2;ratioP2;P2;SDS_P1;SDS_P2;PMS_P1;PMS_P2;Temp;Humidity;BMP_temperature;BMP_pressure;BME280_temperature;BME280_humidity;BME280_pressure;Samples;Min_cycle;Max_cycle;Signal;HPM_P1;HPM_P2
2022/08/20 00:00:15;;;;;;;9.13;6.68;;;;;;;;;;7385134;19;20670;-62
2022/08/20 00:02:47;;;;;;;8.70;6.60;;;;;;;;;;7386782;19;20026;-62
2022/08/20 00:05:19;;;;;;;8.48;6.80;;;;;;;;;;7387399;19;19995;-60
2022/08/20 00:07:44;;;;;;;10.73;7.20;;;;;;;;;;7386131;19;20385;-62
2022/08/20 00:10:10;;;;;;;7.93;7.10;;;;;;;;;;7383825;19;20006;-62
2022/08/20 00:12:36;;;;;;;8.65;6.82;;;;;;;;;;7388734;19;20001;-62
2022/08/20 00:15:04;;;;;;;9.77;8.02;;;;;;;;;;7387011;19;20006;-62
2022/08/20 00:17:36;;;;;;;10.13;7.70;;;;;;;;;;7382574;19;20017;-62
2022/08/20 00:20:07;;;;;;;8.50;7.22;;;;;;;;;;7384562;19;20019;-62
2022/08/20 00:22:33;;;;;;;11.82;8.02;;;;;;;;;;7386786;19;20081;-62
2022/08/20 00:24:58;;;;;;;9.52;7.15;;;;;;;;;;7382238;19;20583;-62
2022/08/20 00:27:23;;;;;;;9.70;7.50;;;;;;;;;;7387352;19;20086;-60
2022/08/20 00:29:49;;;;;;;10.38;7.18;;;;;;;;;;7383644;19;20477;-61
2022/08/20 00:32:14;;;;;;;10.20;7.07;;;;;;;;;;7386157;19;20399;-62
2022/08/20 00:34:41;;;;;;;11.80;7.40;;;;;;;;;;7386875;19;20002;-62
2022/08/20 00:37:07;;;;;;;9.93;8.20;;;;;;;;;;7387761;19;20504;-61
2022/08/20 00:39:32;;;;;;;10.02;7.70;;;;;;;;;;7383832;19;20014;-61
2022/08/20 00:41:58;;;;;;;11.45;8.02;;;;;;;;;;7385528;19;20437;-60
2022/08/20 00:44:23;;;;;;;13.43;8.05;;;;;;;;;;7384345;19;20015;-57
2022/08/20 00:46:50;;;;;;;9.85;7.82;;;;;;;;;;7385232;19;20013;-61
2022/08/20 00:49:26;;;;;;;9.60;7.88;;;;;;;;;;7390714;19;20015;-60
2022/08/20 00:52:04;;;;;;;10.95;8.00;;;;;;;;;;7389521;19;20010;-62
2022/08/20 00:54:41;;;;;;;12.30;8.35;;;;;;;;;;7392000;19;20021;-58
2022/08/20 00:57:18;;;;;;;11.88;8.48;;;;;;;;;;7391207;19;20272;-61
2022/08/20 00:59:43;;;;;;;11.02;8.48;;;;;;;;;;7387066;19;20015;-60
2022/08/20 01:02:12;;;;;;;9.77;7.82;;;;;;;;;;7383307;19;20078;-61
2022/08/20 01:04:38;;;;;;;10.07;7.75;;;;;;;;;;7390899;19;20011;-62
2022/08/20 01:07:05;;;;;;;9.57;7.95;;;;;;;;;;7391697;19;20456;-60
2022/08/20 01:09:31;;;;;;;9.75;7.82;;;;;;;;;;7388198;19;20015;-59
2022/08/20 01:11:57;;;;;;;10.75;7.20;;;;;;;;;;7390903;19;20010;-61
2022/08/20 01:17:04;;;;;;;9.80;6.95;;;;;;;;;;7388070;19;20413;-61
2022/08/20 01:19:33;;;;;;;10.45;7.38;;;;;;;;;;7388855;19;20002;-62
2022/08/20 01:22:00;;;;;;;10.48;8.10;;;;;;;;;;7384005;19;20102;-60
2022/08/20 01:24:33;;;;;;;11.18;8.35;;;;;;;;;;7390137;19;20033;-62
2022/08/20 01:27:01;;;;;;;9.65;7.63;;;;;;;;;;7385312;19;20003;-59
2022/08/20 01:29:37;;;;;;;10.68;8.25;;;;;;;;;;7386050;19;20018;-60
2022/08/20 01:32:05;;;;;;;13.30;8.13;;;;;;;;;;7387380;19;20475;-60
2022/08/20 01:34:30;;;;;;;11.65;8.30;;;;;;;;;;7387384;19;20038;-59
2022/08/20 01:36:56;;;;;;;11.27;8.25;;;;;;;;;;7386669;19;20100;-60
2022/08/20 01:39:32;;;;;;;10.35;7.90;;;;;;;;;;7384052;19;22223;-58
2022/08/20 01:42:11;;;;;;;10.80;7.97;;;;;;;;;;7388599;19;20006;-61
2022/08/20 01:44:39;;;;;;;10.48;7.82;;;;;;;;;;7388921;19;20002;-59
2022/08/20 01:47:14;;;;;;;9.20;7.53;;;;;;;;;;7388434;19;20029;-59
2022/08/20 01:49:43;;;;;;;10.48;8.18;;;;;;;;;;7386060;19;20014;-60
2022/08/20 01:52:16;;;;;;;10.35;7.78;;;;;;;;;;7390102;19;19999;-61
2022/08/20 01:54:42;;;;;;;14.07;9.10;;;;;;;;;;7384679;19;20014;-60
2022/08/20 01:57:16;;;;;;;14.20;9.30;;;;;;;;;;7390073;19;20103;-61
2022/08/20 01:59:42;;;;;;;12.50;9.00;;;;;;;;;;7384409;19;20090;-61
2022/08/20 02:02:10;;;;;;;12.52;9.27;;;;;;;;;;7372440;19;20020;-58
2022/08/20 02:04:35;;;;;;;13.85;9.45;;;;;;;;;;7386710;19;20007;-61
2022/08/20 02:07:04;;;;;;;15.55;10.10;;;;;;;;;;7390212;19;19999;-62
2022/08/20 02:09:36;;;;;;;12.43;9.45;;;;;;;;;;7387734;19;20081;-56
2022/08/20 02:12:04;;;;;;;14.48;9.35;;;;;;;;;;7387815;19;20508;-59
2022/08/20 02:14:30;;;;;;;12.25;9.32;;;;;;;;;;7389767;19;20050;-60
2022/08/20 02:16:57;;;;;;;11.90;9.00;;;;;;;;;;7386055;19;20472;-62
2022/08/20 02:20:02;;;;;;;11.25;8.48;;;;;;;;;;7386606;19;20014;-59
2022/08/20 02:22:40;;;;;;;11.90;8.25;;;;;;;;;;7384300;19;20014;-58
2022/08/20 02:25:08;;;;;;;11.93;8.63;;;;;;;;;;7387938;19;20019;-59
2022/08/20 02:27:35;;;;;;;11.32;8.65;;;;;;;;;;7386117;19;20374;-61
2022/08/20 02:30:07;;;;;;;11.77;8.55;;;;;;;;;;7385565;19;20018;-58
2022/08/20 02:32:33;;;;;;;10.88;8.07;;;;;;;;;;7388428;19;19998;-58
2022/08/20 02:34:58;;;;;;;14.18;9.13;;;;;;;;;;7385668;19;20089;-58
2022/08/20 02:37:23;;;;;;;13.05;8.95;;;;;;;;;;7384645;19;20010;-61
2022/08/20 02:39:49;;;;;;;12.00;9.00;;;;;;;;;;7383780;19;20019;-61
2022/08/20 02:42:14;;;;;;;12.95;9.30;;;;;;;;;;7385602;19;20007;-61
2022/08/20 02:44:39;;;;;;;14.10;9.63;;;;;;;;;;7388111;19;20070;-59
2022/08/20 02:47:06;;;;;;;12.23;9.55;;;;;;;;;;7385533;19;20013;-59
2022/08/20 02:49:31;;;;;;;12.82;9.65;;;;;;;;;;7383117;19;20010;-60
2022/08/20 02:51:57;;;;;;;10.40;8.52;;;;;;;;;;7381306;19;20011;-62
2022/08/20 02:54:23;;;;;;;12.15;9.32;;;;;;;;;;7388130;19;20366;-62
2022/08/20 02:56:49;;;;;;;13.05;8.85;;;;;;;;;;7386579;19;20142;-59
2022/08/20 02:59:14;;;;;;;10.60;7.95;;;;;;;;;;7385912;19;20524;-57
2022/08/20 03:01:39;;;;;;;10.20;7.85;;;;;;;;;;7385513;19;20013;-60
2022/08/20 03:04:05;;;;;;;10.70;8.68;;;;;;;;;;7390259;19;20091;-59
2022/08/20 03:06:31;;;;;;;11.57;8.25;;;;;;;;;;7386712;19;20333;-59
2022/08/20 03:08:56;;;;;;;14.23;8.32;;;;;;;;;;7384896;19;20006;-59
2022/08/20 03:11:21;;;;;;;10.25;8.25;;;;;;;;;;7387037;19;20006;-60
2022/08/20 03:13:47;;;;;;;15.63;10.82;;;;;;;;;;7388996;19;20034;-62
2022/08/20 03:16:13;;;;;;;12.48;9.13;;;;;;;;;;7388743;19;20006;-59
2022/08/20 03:18:42;;;;;;;13.75;7.80;;;;;;;;;;7384498;19;20114;-62
2022/08/20 03:21:09;;;;;;;12.13;8.35;;;;;;;;;;7388045;19;20070;-61
2022/08/20 03:23:35;;;;;;;10.27;8.25;;;;;;;;;;7384823;19;20015;-60
2022/08/20 03:26:02;;;;;;;10.88;8.27;;;;;;;;;;7387967;19;19995;-61
2022/08/20 03:28:28;;;;;;;9.48;6.45;;;;;;;;;;7385188;19;20010;-61
2022/08/20 03:30:55;;;;;;;11.95;8.30;;;;;;;;;;7385797;19;20494;-59
2022/08/20 03:33:20;;;;;;;12.23;8.98;;;;;;;;;;7388523;19;20070;-61
2022/08/20 03:35:47;;;;;;;10.52;8.30;;;;;;;;;;7384477;19;20007;-61
2022/08/20 03:38:15;;;;;;;15.05;8.90;;;;;;;;;;7384892;19;20468;-58
2022/08/20 03:40:41;;;;;;;11.05;8.18;;;;;;;;;;7385341;19;20007;-61
2022/08/20 03:43:08;;;;;;;10.77;7.88;;;;;;;;;;7388102;19;20066;-59
2022/08/20 03:45:36;;;;;;;16.30;8.57;;;;;;;;;;7384737;19;20002;-60
2022/08/20 03:48:03;;;;;;;11.57;8.73;;;;;;;;;;7386502;19;20029;-60
2022/08/20 03:50:30;;;;;;;11.00;7.95;;;;;;;;;;7387383;19;19995;-56
2022/08/20 03:52:57;;;;;;;10.55;8.30;;;;;;;;;;7387510;19;20039;-58
2022/08/20 03:55:23;;;;;;;9.15;7.47;;;;;;;;;;7386577;19;20701;-59
2022/08/20 03:57:52;;;;;;;9.45;7.15;;;;;;;;;;7387606;19;20002;-60
2022/08/20 04:00:22;;;;;;;9.10;7.18;;;;;;;;;;7382906;19;20014;-58
2022/08/20 04:02:47;;;;;;;8.63;7.15;;;;;;;;;;7386960;19;20003;-58
2022/08/20 04:05:13;;;;;;;10.60;7.00;;;;;;;;;;7381491;19;20473;-61
2022/08/20 04:07:39;;;;;;;11.15;7.40;;;;;;;;;;7384412;19;20368;-60
2022/08/20 04:10:08;;;;;;;9.48;7.90;;;;;;;;;;7384614;19;20020;-59
2022/08/20 04:12:36;;;;;;;8.48;7.35;;;;;;;;;;7385329;19;20480;-59
2022/08/20 04:15:01;;;;;;;10.05;7.30;;;;;;;;;;7383751;19;20041;-61
2022/08/20 04:17:27;;;;;;;12.70;7.30;;;;;;;;;;7383491;19;20122;-60
2022/08/20 04:19:52;;;;;;;9.35;6.47;;;;;;;;;;7383602;19;20133;-59
2022/08/20 04:22:17;;;;;;;12.80;7.88;;;;;;;;;;7390774;19;20001;-59
2022/08/20 04:24:43;;;;;;;10.98;7.65;;;;;;;;;;7392889;19;20112;-59
2022/08/20 04:27:09;;;;;;;9.75;7.47;;;;;;;;;;7395220;19;19995;-59
2022/08/20 04:29:36;;;;;;;9.55;7.70;;;;;;;;;;7389076;19;20437;-59
2022/08/20 04:32:05;;;;;;;9.57;7.03;;;;;;;;;;7395517;19;20027;-60
2022/08/20 04:34:30;;;;;;;10.07;7.75;;;;;;;;;;7389342;19;20006;-58
2022/08/20 04:36:56;;;;;;;9.57;7.32;;;;;;;;;;7394526;19;20002;-61
2022/08/20 04:39:21;;;;;;;10.30;7.43;;;;;;;;;;7388652;19;20459;-60
2022/08/20 04:41:47;;;;;;;8.75;7.40;;;;;;;;;;7388077;19;20015;-60
2022/08/20 04:44:12;;;;;;;12.27;7.65;;;;;;;;;;7390767;19;20009;-59
2022/08/20 04:46:38;;;;;;;10.88;6.93;;;;;;;;;;7392864;19;20007;-61
2022/08/20 04:49:05;;;;;;;9.30;7.22;;;;;;;;;;7393031;19;20495;-60
2022/08/20 04:51:31;;;;;;;9.35;6.93;;;;;;;;;;7390640;19;20022;-60
2022/08/20 04:53:57;;;;;;;9.82;7.15;;;;;;;;;;7392809;19;20571;-60
2022/08/20 04:56:29;;;;;;;9.73;7.10;;;;;;;;;;7388964;19;19998;-60
2022/08/20 04:58:58;;;;;;;10.52;7.25;;;;;;;;;;7388022;19;20027;-60
2022/08/20 05:01:24;;;;;;;7.93;6.45;;;;;;;;;;7386603;19;20034;-60
2022/08/20 05:03:53;;;;;;;8.23;6.60;;;;;;;;;;7383564;19;20807;-58
2022/08/20 05:06:19;;;;;;;8.93;7.00;;;;;;;;;;7390850;19;20103;-58
2022/08/20 05:08:45;;;;;;;8.57;6.68;;;;;;;;;;7387011;19;20017;-62
2022/08/20 05:11:11;;;;;;;8.85;6.15;;;;;;;;;;7390172;19;19995;-58
2022/08/20 05:13:36;;;;;;;11.65;7.60;;;;;;;;;;7387611;19;20018;-58
2022/08/20 05:16:03;;;;;;;9.18;6.55;;;;;;;;;;7392220;19;20027;-58
2022/08/20 05:18:32;;;;;;;8.82;6.65;;;;;;;;;;7386579;19;20006;-56
2022/08/20 05:21:03;;;;;;;8.15;6.07;;;;;;;;;;7388074;19;20018;-59
2022/08/20 05:23:28;;;;;;;9.88;7.00;;;;;;;;;;7387887;19;20017;-57
2022/08/20 05:25:56;;;;;;;8.30;6.65;;;;;;;;;;7386626;19;20365;-59
2022/08/20 05:28:24;;;;;;;10.57;7.07;;;;;;;;;;7384283;19;20400;-60
2022/08/20 05:30:51;;;;;;;9.25;6.50;;;;;;;;;;7388993;19;20539;-61
2022/08/20 05:33:19;;;;;;;9.18;6.35;;;;;;;;;;7387392;19;20480;-58
2022/08/20 05:35:46;;;;;;;7.88;6.47;;;;;;;;;;7385147;19;20018;-60
2022/08/20 05:38:14;;;;;;;7.95;5.88;;;;;;;;;;7385368;19;20355;-54
2022/08/20 05:40:41;;;;;;;9.32;6.80;;;;;;;;;;7389626;19;20011;-58
2022/08/20 05:43:07;;;;;;;9.68;6.43;;;;;;;;;;7388497;19;20007;-57
2022/08/20 05:45:36;;;;;;;7.97;6.20;;;;;;;;;;7390396;19;20069;-61
2022/08/20 05:48:10;;;;;;;6.75;5.68;;;;;;;;;;7390474;19;20488;-58
2022/08/20 05:50:36;;;;;;;8.68;6.57;;;;;;;;;;7389557;19;20011;-58
2022/08/20 05:53:02;;;;;;;7.97;6.10;;;;;;;;;;7388868;19;20022;-59
2022/08/20 05:55:28;;;;;;;8.35;6.50;;;;;;;;;;7388366;19;20007;-59
2022/08/20 05:58:00;;;;;;;7.60;5.97;;;;;;;;;;7387893;19;20552;-58
2022/08/20 06:00:28;;;;;;;11.85;6.65;;;;;;;;;;7389849;19;20373;-59
2022/08/20 06:05:37;;;;;;;7.88;6.00;;;;;;;;;;7386121;19;20021;-61
2022/08/20 06:08:04;;;;;;;7.47;5.50;;;;;;;;;;7382031;19;20003;-57
2022/08/20 06:10:30;;;;;;;8.90;5.70;;;;;;;;;;7383572;19;20007;-61
2022/08/20 06:12:55;;;;;;;7.68;6.00;;;;;;;;;;7385948;19;20031;-61
2022/08/20 06:15:20;;;;;;;7.60;5.38;;;;;;;;;;7382663;19;20031;-61
2022/08/20 06:17:46;;;;;;;7.75;5.88;;;;;;;;;;7378530;19;20117;-60
2022/08/20 06:20:11;;;;;;;7.60;5.55;;;;;;;;;;7376564;19;20499;-61
2022/08/20 06:22:37;;;;;;;6.32;5.07;;;;;;;;;;7381495;19;20006;-60
2022/08/20 06:25:04;;;;;;;6.95;5.38;;;;;;;;;;7387039;19;20011;-59
2022/08/20 06:27:29;;;;;;;6.45;5.32;;;;;;;;;;7383492;19;20227;-61
2022/08/20 06:29:55;;;;;;;7.55;5.60;;;;;;;;;;7374530;19;20798;-61
2022/08/20 06:32:23;;;;;;;7.13;5.80;;;;;;;;;;7381477;19;20305;-61
2022/08/20 06:34:50;;;;;;;6.32;5.10;;;;;;;;;;7378242;19;20018;-61
2022/08/20 06:37:26;;;;;;;5.43;4.82;;;;;;;;;;7380453;19;21180;-59
2022/08/20 06:39:52;;;;;;;6.80;5.20;;;;;;;;;;7376299;19;20014;-60
2022/08/20 06:42:19;;;;;;;6.93;5.10;;;;;;;;;;7379974;19;20027;-61
2022/08/20 06:44:48;;;;;;;9.00;4.63;;;;;;;;;;7383921;19;20019;-59
2022/08/20 06:47:16;;;;;;;8.48;4.47;;;;;;;;;;7385496;19;20127;-63
2022/08/20 06:49:41;;;;;;;10.27;4.90;;;;;;;;;;7375971;19;20662;-59
2022/08/20 06:52:07;;;;;;;6.15;4.75;;;;;;;;;;7380555;19;20010;-54
2022/08/20 06:54:33;;;;;;;9.10;4.88;;;;;;;;;;7379242;19;20050;-78
2022/08/20 06:57:10;;;;;;;9.88;5.32;;;;;;;;;;7392400;19;20011;-79
2022/08/20 06:59:47;;;;;;;7.53;4.22;;;;;;;;;;7392441;19;20014;-79
2022/08/20 07:02:12;;;;;;;8.27;5.22;;;;;;;;;;7402643;19;20130;-78
2022/08/20 07:04:38;;;;;;;7.05;4.88;;;;;;;;;;7396262;19;20437;-78
2022/08/20 07:07:14;;;;;;;6.95;4.82;;;;;;;;;;7391411;19;20003;-80
2022/08/20 07:09:42;;;;;;;;;;;;;;;;;;7396811;19;20019;-81
2022/08/20 07:12:09;;;;;;;6.40;4.28;;;;;;;;;;7396012;19;20345;-78
2022/08/20 07:14:38;;;;;;;6.30;4.80;;;;;;;;;;7394587;19;20010;-79
2022/08/20 07:17:06;;;;;;;7.13;4.60;;;;;;;;;;7390905;19;20026;-77
2022/08/20 07:19:32;;;;;;;5.20;4.32;;;;;;;;;;7387969;19;20015;-77
2022/08/20 07:21:58;;;;;;;7.07;4.97;;;;;;;;;;7386880;19;20014;-77
2022/08/20 07:24:24;;;;;;;8.63;4.82;;;;;;;;;;7390090;19;20006;-77
2022/08/20 07:26:50;;;;;;;7.38;5.03;;;;;;;;;;7387878;19;20003;-77
2022/08/20 07:29:17;;;;;;;5.65;4.30;;;;;;;;;;7389290;19;20347;-76
2022/08/20 07:34:27;;;;;;;7.13;4.38;;;;;;;;;;7386942;19;20031;-76
2022/08/20 07:36:52;;;;;;;4.93;4.10;;;;;;;;;;7389723;19;20015;-79
2022/08/20 07:39:20;;;;;;;6.22;4.70;;;;;;;;;;7390895;19;20007;-77
2022/08/20 07:42:01;;;;;;;6.28;4.28;;;;;;;;;;7386750;19;20018;-77
2022/08/20 07:44:27;;;;;;;7.63;4.15;;;;;;;;;;7387337;19;20377;-76
2022/08/20 07:46:52;;;;;;;5.68;4.20;;;;;;;;;;7390100;19;20438;-77
2022/08/20 07:49:18;;;;;;;5.40;4.18;;;;;;;;;;7387426;19;20351;-76
2022/08/20 07:51:43;;;;;;;4.88;3.80;;;;;;;;;;7388918;19;20014;-76
2022/08/20 07:54:08;;;;;;;4.82;4.25;;;;;;;;;;7386178;19;19991;-76
2022/08/20 07:56:34;;;;;;;4.28;3.85;;;;;;;;;;7385491;19;20058;-76
2022/08/20 07:59:00;;;;;;;5.32;4.20;;;;;;;;;;7383997;19;20112;-77
2022/08/20 08:01:29;;;;;;;6.30;3.72;;;;;;;;;;7388146;19;20018;-77
2022/08/20 08:03:56;;;;;;;5.13;4.10;;;;;;;;;;7390077;19;20007;-75
2022/08/20 08:06:22;;;;;;;4.68;4.18;;;;;;;;;;7386223;19;21528;-76
2022/08/20 08:08:48;;;;;;;5.40;4.30;;;;;;;;;;7385907;19;20529;-77
2022/08/20 08:11:15;;;;;;;5.70;3.95;;;;;;;;;;7390135;19;20022;-75
2022/08/20 08:13:41;;;;;;;6.45;4.10;;;;;;;;;;7387006;19;20466;-76
2022/08/20 08:16:08;;;;;;;5.03;3.83;;;;;;;;;;7391107;19;20102;-76
2022/08/20 08:18:48;;;;;;;4.82;3.90;;;;;;;;;;7387893;19;20021;-76
2022/08/20 08:21:15;;;;;;;4.30;3.47;;;;;;;;;;7386530;19;20092;-77
2022/08/20 08:23:43;;;;;;;4.95;3.78;;;;;;;;;;7385967;19;20490;-77
2022/08/20 08:26:09;;;;;;;4.93;3.90;;;;;;;;;;7385496;19;20540;-74
2022/08/20 08:28:35;;;;;;;9.52;4.18;;;;;;;;;;7385004;19;20008;-79
2022/08/20 08:31:01;;;;;;;5.80;3.72;;;;;;;;;;7385809;19;20014;-75
2022/08/20 08:33:32;;;;;;;3.75;3.40;;;;;;;;;;7387776;19;20479;-78
2022/08/20 08:36:03;;;;;;;4.00;3.60;;;;;;;;;;7388324;19;20399;-77
2022/08/20 08:38:33;;;;;;;3.63;3.20;;;;;;;;;;7387769;19;19999;-77
2022/08/20 08:41:11;;;;;;;6.35;3.50;;;;;;;;;;7388935;19;20015;-77
2022/08/20 08:43:36;;;;;;;4.30;3.72;;;;;;;;;;7386013;19;20007;-77
2022/08/20 08:46:09;;;;;;;3.90;3.15;;;;;;;;;;7389958;19;20466;-77
2022/08/20 08:48:44;;;;;;;5.13;3.78;;;;;;;;;;7388652;19;20021;-77
2022/08/20 08:51:14;;;;;;;4.47;3.95;;;;;;;;;;7386381;19;20144;-78
2022/08/20 08:53:45;;;;;;;4.93;3.50;;;;;;;;;;7389157;19;20002;-76
2022/08/20 08:56:13;;;;;;;4.13;3.60;;;;;;;;;;7384123;19;20002;-77
2022/08/20 08:58:38;;;;;;;4.60;3.60;;;;;;;;;;7386668;19;20007;-77
2022/08/20 09:01:13;;;;;;;4.05;3.63;;;;;;;;;;7388604;19;20007;-77
2022/08/20 09:03:42;;;;;;;;;;;;;;;;;;7388445;19;20007;-77
2022/08/20 09:06:13;;;;;;;4.05;3.65;;;;;;;;;;7385880;19;19922;-78
2022/08/20 09:08:47;;;;;;;7.00;4.22;;;;;;;;;;7396705;19;20010;-77
2022/08/20 09:11:13;;;;;;;5.43;3.85;;;;;;;;;;7391777;19;20031;-77
2022/08/20 09:13:41;;;;;;;3.60;3.30;;;;;;;;;;7393762;19;20494;-77
2022/08/20 09:16:07;;;;;;;4.97;3.58;;;;;;;;;;7393051;19;20006;-78
2022/08/20 09:18:34;;;;;;;4.30;3.78;;;;;;;;;;7394441;19;19999;-78
2022/08/20 09:21:00;;;;;;;5.65;3.90;;;;;;;;;;7395852;19;20017;-78
2022/08/20 09:23:26;;;;;;;5.45;4.20;;;;;;;;;;7388182;19;20019;-77
2022/08/20 09:25:52;;;;;;;4.32;3.72;;;;;;;;;;7391222;19;20808;-77
2022/08/20 09:28:19;;;;;;;8.25;4.03;;;;;;;;;;7394907;19;20013;-77
2022/08/20 09:30:45;;;;;;;4.10;3.70;;;;;;;;;;7393571;19;20006;-77
2022/08/20 09:33:11;;;;;;;5.93;3.97;;;;;;;;;;7393789;19;20006;-77
2022/08/20 09:35:38;;;;;;;3.47;3.17;;;;;;;;;;7392595;19;20018;-79
2022/08/20 09:38:04;;;;;;;4.57;4.18;;;;;;;;;;7393303;19;20010;-77
2022/08/20 09:40:30;;;;;;;5.00;4.20;;;;;;;;;;7391898;19;20010;-76
2022/08/20 09:42:55;;;;;;;5.20;4.13;;;;;;;;;;7393371;19;20039;-78
2022/08/20 09:45:23;;;;;;;4.53;4.05;;;;;;;;;;7392374;19;20015;-80
2022/08/20 09:48:09;;;;;;;4.30;3.50;;;;;;;;;;7392550;19;20006;-77
2022/08/20 09:50:35;;;;;;;5.35;2.97;;;;;;;;;;7388679;19;20038;-76
2022/08/20 09:53:03;;;;;;;4.40;3.58;;;;;;;;;;7394316;19;20148;-76
2022/08/20 09:55:36;;;;;;;3.78;3.42;;;;;;;;;;7394281;19;20093;-76
2022/08/20 09:58:08;;;;;;;4.68;3.85;;;;;;;;;;7396694;19;20029;-77
2022/08/20 10:00:33;;;;;;;5.95;3.65;;;;;;;;;;7395964;19;20018;-76
2022/08/20 10:03:00;;;;;;;5.05;3.90;;;;;;;;;;7389550;19;20045;-77
2022/08/20 10:05:26;;;;;;;5.00;3.63;;;;;;;;;;7391072;19;20030;-76
2022/08/20 10:07:51;;;;;;;7.03;3.88;;;;;;;;;;7395882;19;20074;-76
2022/08/20 10:10:17;;;;;;;4.85;3.83;;;;;;;;;;7391656;19;20121;-76
2022/08/20 10:12:42;;;;;;;5.05;4.35;;;;;;;;;;7395827;19;20009;-76
2022/08/20 10:15:09;;;;;;;5.45;3.90;;;;;;;;;;7395112;19;20380;-76
2022/08/20 10:17:41;;;;;;;6.78;4.20;;;;;;;;;;7393133;19;20024;-76
2022/08/20 10:20:09;;;;;;;3.83;3.30;;;;;;;;;;7393894;19;20002;-76
2022/08/20 10:22:35;;;;;;;4.47;3.72;;;;;;;;;;7390069;19;20002;-77
2022/08/20 10:25:00;;;;;;;5.93;3.95;;;;;;;;;;7392279;19;20042;-76
2022/08/20 10:27:27;;;;;;;4.22;3.55;;;;;;;;;;7392369;19;20003;-76
2022/08/20 10:29:52;;;;;;;4.78;3.53;;;;;;;;;;7391924;19;20022;-76
2022/08/20 10:32:18;;;;;;;5.63;3.58;;;;;;;;;;7392450;19;20006;-76
2022/08/20 10:34:45;;;;;;;6.28;3.40;;;;;;;;;;7390939;19;20015;-76
2022/08/20 10:37:25;;;;;;;4.20;3.55;;;;;;;;;;7392566;19;20066;-76
2022/08/20 10:39:52;;;;;;;7.53;4.22;;;;;;;;;;7391550;19;20030;-76
2022/08/20 10:42:17;;;;;;;4.00;3.40;;;;;;;;;;7389968;19;20006;-78
2022/08/20 10:44:44;;;;;;;4.38;3.80;;;;;;;;;;7396580;19;20021;-78
2022/08/20 10:47:15;;;;;;;5.47;3.65;;;;;;;;;;7394833;19;20009;-77
2022/08/20 10:49:41;;;;;;;4.25;3.80;;;;;;;;;;7394667;19;20049;-76
2022/08/20 10:52:06;;;;;;;4.15;3.33;;;;;;;;;;7395727;19;20332;-76
2022/08/20 10:54:32;;;;;;;5.18;3.80;;;;;;;;;;7394291;19;20438;-76
2022/08/20 10:57:01;;;;;;;3.40;3.08;;;;;;;;;;7394342;19;20627;-78
2022/08/20 10:59:30;;;;;;;4.18;3.58;;;;;;;;;;7395202;19;20486;-76
2022/08/20 11:01:55;;;;;;;3.72;3.33;;;;;;;;;;7393046;19;20380;-78
2022/08/20 11:04:21;;;;;;;3.97;3.38;;;;;;;;;;7392438;19;20007;-77
2022/08/20 11:06:46;;;;;;;5.07;3.85;;;;;;;;;;7389289;19;20376;-76
2022/08/20 11:09:11;;;;;;;5.63;3.40;;;;;;;;;;7391604;19;20530;-75
2022/08/20 11:11:37;;;;;;;5.10;2.97;;;;;;;;;;7388703;19;20560;-77
2022/08/20 11:14:02;;;;;;;4.30;3.13;;;;;;;;;;7389833;19;20377;-76
2022/08/20 11:16:29;;;;;;;5.75;3.60;;;;;;;;;;7390873;19;20002;-77
2022/08/20 11:18:54;;;;;;;3.78;3.25;;;;;;;;;;7387722;19;20374;-77
2022/08/20 11:21:19;;;;;;;4.38;3.10;;;;;;;;;;7391690;19;20014;-77
2022/08/20 11:23:45;;;;;;;6.40;3.95;;;;;;;;;;7390409;19;20441;-78
2022/08/20 11:26:20;;;;;;;6.57;3.47;;;;;;;;;;7393891;19;20021;-78
2022/08/20 11:28:45;;;;;;;8.00;5.20;;;;;;;;;;7391510;19;20003;-77
2022/08/20 11:31:11;;;;;;;18.13;9.32;;;;;;;;;;7391908;19;20015;-77
2022/08/20 11:33:36;;;;;;;6.72;5.78;;;;;;;;;;7387430;19;20010;-77
2022/08/20 11:36:01;;;;;;;5.85;4.90;;;;;;;;;;7388072;19;19999;-77
2022/08/20 11:38:27;;;;;;;5.35;4.50;;;;;;;;;;7386082;19;20412;-77
2022/08/20 11:40:52;;;;;;;5.95;4.50;;;;;;;;;;7391366;19;20159;-77
2022/08/20 11:43:17;;;;;;;5.20;3.70;;;;;;;;;;7391887;19;19994;-77
2022/08/20 11:45:46;;;;;;;4.53;3.80;;;;;;;;;;7391078;19;20127;-77
2022/08/20 11:48:12;;;;;;;4.10;3.50;;;;;;;;;;7387733;19;20091;-77
2022/08/20 11:50:37;;;;;;;5.30;4.18;;;;;;;;;;7391488;19;20018;-77
2022/08/20 11:53:02;;;;;;;5.13;3.63;;;;;;;;;;7391326;19;20014;-77
2022/08/20 11:55:28;;;;;;;5.70;3.70;;;;;;;;;;7391462;19;20070;-77
2022/08/20 11:57:53;;;;;;;4.28;3.88;;;;;;;;;;7390565;19;20011;-77
2022/08/20 12:00:23;;;;;;;4.90;3.88;;;;;;;;;;7389357;19;20003;-77
2022/08/20 12:02:50;;;;;;;5.00;3.72;;;;;;;;;;7390255;19;20026;-77
2022/08/20 12:05:19;;;;;;;7.43;3.95;;;;;;;;;;7389006;19;20441;-77
2022/08/20 12:07:44;;;;;;;4.63;3.90;;;;;;;;;;7388891;19;20082;-77
2022/08/20 12:10:10;;;;;;;4.35;3.80;;;;;;;;;;7389457;19;20127;-76
2022/08/20 12:12:37;;;;;;;5.03;3.50;;;;;;;;;;7388545;19;20035;-76
2022/08/20 12:15:05;;;;;;;6.28;4.28;;;;;;;;;;7388919;19;20355;-77
2022/08/20 12:17:31;;;;;;;4.53;3.63;;;;;;;;;;7387711;19;20033;-77
2022/08/20 12:19:59;;;;;;;4.60;3.67;;;;;;;;;;7387251;19;20369;-77
2022/08/20 12:22:24;;;;;;;4.03;3.53;;;;;;;;;;7384990;19;20007;-77
2022/08/20 12:24:50;;;;;;;3.92;3.13;;;;;;;;;;7387959;19;20660;-77
2022/08/20 12:27:20;;;;;;;4.53;3.42;;;;;;;;;;7388391;19;19995;-77
2022/08/20 12:29:47;;;;;;;3.45;3.08;;;;;;;;;;7389883;19;20025;-77
2022/08/20 12:32:13;;;;;;;5.70;3.13;;;;;;;;;;7384598;19;20192;-77
2022/08/20 12:34:41;;;;;;;4.35;3.42;;;;;;;;;;7387404;19;20007;-77
2022/08/20 12:37:10;;;;;;;6.07;4.18;;;;;;;;;;7392087;19;20006;-77
2022/08/20 12:39:38;;;;;;;4.15;3.47;;;;;;;;;;7386650;19;20010;-76
2022/08/20 12:42:03;;;;;;;4.30;3.55;;;;;;;;;;7392324;19;20017;-76
2022/08/20 12:44:29;;;;;;;3.88;3.35;;;;;;;;;;7397709;19;20374;-77
2022/08/20 12:47:26;;;;;;;6.13;3.60;;;;;;;;;;7394418;19;20002;-76
2022/08/20 12:50:05;;;;;;;4.78;3.55;;;;;;;;;;7389295;19;20011;-76
2022/08/20 12:52:31;;;;;;;5.35;3.10;;;;;;;;;;7395374;19;20095;-77
2022/08/20 12:54:57;;;;;;;5.57;3.50;;;;;;;;;;7396310;19;20011;-77
2022/08/20 12:57:27;;;;;;;4.68;3.47;;;;;;;;;;7397645;19;19991;-77
2022/08/20 12:59:55;;;;;;;5.22;3.33;;;;;;;;;;7392996;19;19998;-77
2022/08/20 13:02:20;;;;;;;5.88;2.90;;;;;;;;;;7394236;19;20061;-76
2022/08/20 13:04:46;;;;;;;6.13;2.85;;;;;;;;;;7397164;19;20006;-76
2022/08/20 13:07:13;;;;;;;3.47;2.97;;;;;;;;;;7393970;19;20399;-77
2022/08/20 13:09:39;;;;;;;2.80;2.60;;;;;;;;;;7396456;19;20493;-77
2022/08/20 13:12:04;;;;;;;2.83;2.58;;;;;;;;;;7395594;19;20014;-77
2022/08/20 13:14:30;;;;;;;2.97;2.67;;;;;;;;;;7395979;19;20002;-77
2022/08/20 13:16:57;;;;;;;6.05;2.88;;;;;;;;;;7397443;19;20007;-77
2022/08/20 13:19:23;;;;;;;3.33;2.42;;;;;;;;;;7392444;19;20002;-77
2022/08/20 13:21:48;;;;;;;2.40;2.20;;;;;;;;;;7391855;19;20046;-77
2022/08/20 13:24:14;;;;;;;2.63;2.42;;;;;;;;;;7394740;19;20130;-76
2022/08/20 13:26:39;;;;;;;3.28;2.63;;;;;;;;;;7395142;19;20326;-77
2022/08/20 13:29:04;;;;;;;2.83;2.58;;;;;;;;;;7393215;19;19994;-77
2022/08/20 13:31:30;;;;;;;3.10;2.45;;;;;;;;;;7393578;19;20002;-77
2022/08/20 13:33:55;;;;;;;2.72;2.28;;;;;;;;;;7393794;19;20351;-76
2022/08/20 13:36:20;;;;;;;2.25;1.95;;;;;;;;;;7391628;19;20014;-76
2022/08/20 13:38:46;;;;;;;3.45;2.67;;;;;;;;;;7396464;19;20451;-77
2022/08/20 13:41:11;;;;;;;2.78;2.53;;;;;;;;;;7392790;19;20477;-77
2022/08/20 13:43:37;;;;;;;2.55;2.33;;;;;;;;;;7392939;19;20352;-77
2022/08/20 13:46:03;;;;;;;3.95;2.50;;;;;;;;;;7391592;19;20008;-77
2022/08/20 13:48:29;;;;;;;2.70;2.50;;;;;;;;;;7394874;19;20003;-77
2022/08/20 13:50:54;;;;;;;3.25;2.25;;;;;;;;;;7394700;19;20024;-77
2022/08/20 13:53:19;;;;;;;5.03;2.28;;;;;;;;;;7391914;19;20011;-77
2022/08/20 13:55:45;;;;;;;2.63;2.35;;;;;;;;;;7395152;19;20002;-77
2022/08/20 13:58:10;;;;;;;3.70;2.47;;;;;;;;;;7391495;19;19999;-76
2022/08/20 14:00:36;;;;;;;3.03;2.65;;;;;;;;;;7391712;19;20006;-77
2022/08/20 14:03:04;;;;;;;2.25;1.90;;;;;;;;;;7391806;19;20002;-76
2022/08/20 14:05:30;;;;;;;2.67;2.10;;;;;;;;;;7392619;19;20017;-77
2022/08/20 14:08:04;;;;;;;4.15;2.70;;;;;;;;;;7393721;19;20018;-76
2022/08/20 14:10:31;;;;;;;3.03;2.55;;;;;;;;;;7394484;19;19995;-76
2022/08/20 14:12:57;;;;;;;3.17;2.50;;;;;;;;;;7395673;19;20517;-77
2022/08/20 14:15:23;;;;;;;3.17;2.47;;;;;;;;;;7391179;19;19995;-77
2022/08/20 14:17:53;;;;;;;2.67;2.13;;;;;;;;;;7391275;19;20001;-77
2022/08/20 14:20:21;;;;;;;5.32;2.58;;;;;;;;;;7391714;19;20015;-76
2022/08/20 14:22:47;;;;;;;3.42;2.13;;;;;;;;;;7393712;19;20017;-77
2022/08/20 14:25:14;;;;;;;1.73;1.60;;;;;;;;;;7392489;19;19994;-77
2022/08/20 14:27:47;;;;;;;5.10;1.40;;;;;;;;;;7394290;19;20007;-83
2022/08/20 14:30:16;;;;;;;5.28;1.33;;;;;;;;;;7393524;19;20071;-83
2022/08/20 14:32:42;;;;;;;6.05;0.68;;;;;;;;;;7399498;19;20002;-82
2022/08/20 14:35:08;;;;;;;4.57;0.80;;;;;;;;;;7395199;19;20122;-82
2022/08/20 14:37:39;;;;;;;3.55;0.70;;;;;;;;;;7397989;19;20469;-80
2022/08/20 14:40:08;;;;;;;1.17;0.30;;;;;;;;;;7396830;19;20003;-83
2022/08/20 14:42:34;;;;;;;7.93;0.60;;;;;;;;;;7395120;19;20038;-83
2022/08/20 14:45:07;;;;;;;1.05;0.30;;;;;;;;;;7396662;19;20442;-83
2022/08/20 14:47:43;;;;;;;1.00;0.57;;;;;;;;;;7394237;19;20006;-82
2022/08/20 14:50:23;;;;;;;1.08;0.70;;;;;;;;;;7399493;19;19998;-83